Time;durP1;ratioP1;P1;durP2;ratioP2;P2;SDS_P1;SDS_P2;PMS_P1;PMS_P2;Temp;Humidity;BMP_temperature;BMP_pressure;BME280_temperature;BME280_humidity;BME280_pressure;Samples;Min_cycle;Max_cycle;Signal;HPM_P1;HPM_P2
2021/06/15 00:01:49;;;;;;;4.65;2.75;;;;;;;15.87;58.51;95909.78;4994934;28;20172;-72
2021/06/15 00:04:14;;;;;;;5.68;3.75;;;;;;;15.83;58.63;95909.31;4977228;28;20350;-72
2021/06/15 00:06:39;;;;;;;5.25;2.90;;;;;;;15.82;58.79;95912.13;4966549;28;20175;-72
2021/06/15 00:09:05;;;;;;;5.88;2.45;;;;;;;15.75;59.20;95905.94;4986027;28;20185;-72
2021/06/15 00:11:30;;;;;;;7.50;2.80;;;;;;;15.68;59.24;95910.22;4994862;28;20200;-72
2021/06/15 00:13:55;;;;;;;3.95;2.70;;;;;;;15.66;59.32;95914.81;4977850;28;20229;-72
2021/06/15 00:16:21;;;;;;;3.83;2.50;;;;;;;15.59;59.57;95907.59;4988016;28;20618;-72
2021/06/15 00:18:46;;;;;;;3.47;2.83;;;;;;;15.55;60.12;95903.69;4996722;28;20171;-73
2021/06/15 00:21:12;;;;;;;4.10;2.63;;;;;;;15.54;60.43;95901.22;4996739;28;20186;-73
2021/06/15 00:23:37;;;;;;;4.95;2.83;;;;;;;15.50;60.74;95899.94;4996075;28;20260;-73
2021/06/15 00:26:03;;;;;;;6.25;3.25;;;;;;;15.46;60.38;95904.72;4988112;28;20707;-73
2021/06/15 00:28:28;;;;;;;5.97;2.75;;;;;;;15.43;60.56;95901.59;5000223;28;20211;-73
2021/06/15 00:30:53;;;;;;;3.58;2.70;;;;;;;15.41;60.47;95899.16;4977138;28;20563;-72
2021/06/15 00:33:19;;;;;;;2.75;2.45;;;;;;;15.39;60.65;95902.94;4981699;28;20180;-72
2021/06/15 00:35:44;;;;;;;3.90;2.55;;;;;;;15.38;60.79;95896.06;5005429;28;20265;-73
2021/06/15 00:38:09;;;;;;;4.88;2.90;;;;;;;15.35;60.96;95889.34;4977114;28;20283;-73
2021/06/15 00:40:35;;;;;;;6.15;3.00;;;;;;;15.34;60.92;95900.00;4960938;28;20208;-73
2021/06/15 00:43:00;;;;;;;4.68;2.85;;;;;;;15.27;61.38;95889.38;4976578;28;20586;-73
2021/06/15 00:45:27;;;;;;;4.68;2.92;;;;;;;15.26;60.95;95888.56;4984456;28;20207;-73
2021/06/15 00:47:54;;;;;;;3.92;2.70;;;;;;;15.25;61.20;95883.50;4985407;28;20190;-73
2021/06/15 00:50:20;;;;;;;3.55;2.65;;;;;;;15.21;61.18;95882.22;5013560;28;20183;-72
2021/06/15 00:52:46;;;;;;;5.32;2.72;;;;;;;15.25;60.90;95876.47;4996199;28;20179;-72
2021/06/15 00:55:12;;;;;;;3.38;2.97;;;;;;;15.27;60.74;95877.09;4974931;28;20210;-73
2021/06/15 00:57:37;;;;;;;6.40;3.33;;;;;;;15.30;60.62;95873.34;4984539;28;20184;-73
2021/06/15 01:00:05;;;;;;;4.18;2.80;;;;;;;15.34;60.62;95879.06;4976517;28;20180;-72
2021/06/15 01:02:31;;;;;;;6.00;3.17;;;;;;;15.33;60.64;95880.84;4993576;28;20208;-73
2021/06/15 01:04:59;;;;;;;4.70;3.20;;;;;;;15.32;60.53;95871.38;4976827;28;20238;-73
2021/06/15 01:07:42;;;;;;;3.30;2.70;;;;;;;15.35;60.66;95873.66;4987829;28;20189;-73
2021/06/15 01:10:29;;;;;;;5.40;2.88;;;;;;;15.32;60.49;95868.75;4994251;28;20203;-73
2021/06/15 01:13:05;;;;;;;4.85;3.15;;;;;;;15.33;60.70;95872.19;4993918;28;20179;-73
2021/06/15 01:15:39;;;;;;;5.25;3.10;;;;;;;15.32;60.55;95870.56;4976878;28;20204;-73
2021/06/15 01:18:12;;;;;;;3.78;2.92;;;;;;;15.32;60.70;95863.53;5008883;28;20198;-73
2021/06/15 01:20:40;;;;;;;4.28;2.92;;;;;;;15.26;60.79;95872.03;4976214;28;20183;-73
2021/06/15 01:23:43;;;;;;;4.85;3.17;;;;;;;15.32;60.59;95866.16;4976241;28;20204;-73
2021/06/15 01:26:20;;;;;;;6.15;2.88;;;;;;;15.26;60.94;95861.59;4993940;28;20266;-73
2021/06/15 01:28:55;;;;;;;4.72;3.05;;;;;;;15.23;60.96;95865.34;5004364;28;20760;-74
2021/06/15 01:31:35;;;;;;;3.80;3.05;;;;;;;15.22;61.18;95866.34;4976001;28;20192;-73
2021/06/15 01:34:09;;;;;;;4.07;3.00;;;;;;;15.20;61.20;95867.50;4991554;28;20214;-74
2021/06/15 01:36:37;;;;;;;4.65;2.80;;;;;;;15.20;60.89;95862.28;4975892;28;20209;-73
2021/06/15 01:39:06;;;;;;;4.65;2.60;;;;;;;15.18;61.42;95859.00;4984401;28;20234;-73
2021/06/15 01:41:34;;;;;;;3.97;3.30;;;;;;;15.15;61.72;95861.94;4995169;28;20198;-73
2021/06/15 01:44:07;;;;;;;4.43;2.67;;;;;;;15.13;61.47;95862.13;5012216;28;20206;-73
2021/06/15 01:46:58;;;;;;;4.80;2.80;;;;;;;15.17;61.26;95852.94;4995140;28;20179;-73
2021/06/15 01:49:24;;;;;;;3.92;2.88;;;;;;;15.25;60.83;95847.69;4995181;28;20198;-73
2021/06/15 01:51:50;;;;;;;4.18;2.72;;;;;;;15.23;61.11;95854.06;4978420;28;20274;-73
2021/06/15 01:54:22;;;;;;;4.93;3.05;;;;;;;15.32;60.36;95852.25;4975084;28;20235;-73
2021/06/15 01:56:49;;;;;;;5.63;3.00;;;;;;;15.42;60.25;95851.06;4975213;28;20690;-73
2021/06/15 01:59:15;;;;;;;5.43;3.30;;;;;;;15.47;60.02;95854.00;4981510;28;20196;-74
2021/06/15 02:01:44;;;;;;;4.45;2.90;;;;;;;15.49;59.81;95854.63;5000761;28;20199;-72
2021/06/15 02:04:11;;;;;;;4.80;3.20;;;;;;;15.54;59.82;95851.50;4974845;28;20679;-71
2021/06/15 02:06:36;;;;;;;5.55;2.90;;;;;;;15.46;60.01;95852.38;4975274;28;20315;-72
2021/06/15 02:09:04;;;;;;;5.60;3.05;;;;;;;15.40;60.14;95854.84;4960014;28;20281;-72
2021/06/15 02:11:31;;;;;;;5.05;2.88;;;;;;;15.38;60.54;95854.19;4976800;28;20188;-72
2021/06/15 02:14:00;;;;;;;4.45;2.72;;;;;;;15.35;60.41;95849.28;5000284;28;20178;-71
2021/06/15 02:16:27;;;;;;;9.05;3.80;;;;;;;15.36;60.49;95849.13;4975119;28;20206;-72
2021/06/15 02:18:54;;;;;;;4.93;2.90;;;;;;;15.39;60.38;95845.38;4975151;28;20219;-72
2021/06/15 02:21:20;;;;;;;4.45;2.60;;;;;;;15.45;60.51;95840.25;4982123;28;20567;-72
2021/06/15 02:23:47;;;;;;;4.78;3.30;;;;;;;15.46;60.46;95841.91;4978104;28;20334;-72
2021/06/15 02:26:16;;;;;;;4.53;2.78;;;;;;;15.51;60.26;95839.56;4975077;28;20176;-72
2021/06/15 02:28:42;;;;;;;5.90;3.17;;;;;;;15.51;60.37;95838.75;4975009;28;20183;-73
2021/06/15 02:31:15;;;;;;;4.88;2.80;;;;;;;15.46;60.65;95847.13;4981041;28;20172;-74
2021/06/15 02:33:50;;;;;;;6.68;3.50;;;;;;;15.44;60.73;95843.84;4982582;28;20729;-72
2021/06/15 02:36:28;;;;;;;6.75;4.40;;;;;;;15.43;60.45;95841.41;4974909;28;20190;-72
2021/06/15 02:38:57;;;;;;;5.82;3.47;;;;;;;15.35;60.75;95839.63;4974798;28;20242;-73
2021/06/15 02:41:23;;;;;;;4.85;3.10;;;;;;;15.37;60.75;95842.91;4980039;28;20179;-73
2021/06/15 02:43:50;;;;;;;4.45;3.40;;;;;;;15.36;60.97;95835.22;4985055;28;20580;-72
2021/06/15 02:46:17;;;;;;;4.65;3.22;;;;;;;15.37;60.91;95842.91;4974756;28;20597;-73
2021/06/15 02:48:44;;;;;;;3.05;2.72;;;;;;;15.42;60.82;95835.34;4974748;28;20183;-73
2021/06/15 02:51:10;;;;;;;8.73;3.15;;;;;;;15.33;61.27;95836.38;4974800;28;20317;-73
2021/06/15 02:53:44;;;;;;;5.50;3.38;;;;;;;15.33;61.48;95833.75;5000951;28;20639;-73
2021/06/15 02:56:17;;;;;;;4.53;3.50;;;;;;;15.28;61.60;95830.81;4974865;28;20176;-73
2021/06/15 02:58:42;;;;;;;5.03;3.20;;;;;;;15.27;61.74;95827.41;4975405;28;20175;-73
2021/06/15 03:01:08;;;;;;;4.57;3.33;;;;;;;15.19;61.89;95830.03;4974757;28;20176;-73
2021/06/15 03:03:37;;;;;;;5.05;2.78;;;;;;;15.19;61.94;95830.03;4980335;28;20261;-73
2021/06/15 03:06:03;;;;;;;4.45;3.05;;;;;;;15.18;62.09;95831.03;4999958;28;20203;-72
2021/06/15 03:08:29;;;;;;;4.00;3.10;;;;;;;15.16;62.13;95835.63;4976587;28;20242;-72
2021/06/15 03:10:54;;;;;;;5.95;3.30;;;;;;;15.20;62.03;95829.09;4962213;28;20172;-73
2021/06/15 03:13:43;;;;;;;4.82;3.25;;;;;;;15.21;61.52;95832.50;4981378;28;20203;-73
2021/06/15 03:16:14;;;;;;;6.78;3.42;;;;;;;15.23;61.66;95828.72;4989917;28;20190;-73
2021/06/15 03:18:52;;;;;;;4.50;3.15;;;;;;;15.30;61.61;95834.94;4997948;28;20554;-73
2021/06/15 03:21:19;;;;;;;5.03;3.25;;;;;;;15.37;61.37;95827.22;5015347;28;20167;-73
2021/06/15 03:23:48;;;;;;;4.30;2.90;;;;;;;15.45;61.10;95829.78;4996217;28;20666;-72
2021/06/15 03:26:18;;;;;;;5.90;3.28;;;;;;;15.52;60.76;95827.28;4978207;28;20175;-73
2021/06/15 03:28:46;;;;;;;4.50;2.88;;;;;;;15.63;60.40;95828.75;4978261;28;20276;-73
2021/06/15 03:31:14;;;;;;;4.20;3.25;;;;;;;15.61;60.43;95828.91;4977834;28;20184;-72
2021/06/15 03:33:41;;;;;;;4.85;3.28;;;;;;;15.66;59.90;95836.28;4977888;28;20172;-73
2021/06/15 03:36:06;;;;;;;5.38;3.47;;;;;;;15.71;59.62;95837.38;4985446;28;20222;-73
2021/06/15 03:38:35;;;;;;;5.13;2.75;;;;;;;15.83;59.33;95833.38;4985944;28;20195;-74
2021/06/15 03:41:01;;;;;;;3.65;3.08;;;;;;;15.85;58.98;95834.03;4978019;28;20251;-72
2021/06/15 03:43:29;;;;;;;3.63;3.20;;;;;;;15.86;59.05;95838.25;4987666;28;20303;-73
2021/06/15 03:46:05;;;;;;;5.18;3.15;;;;;;;15.92;58.69;95833.34;4994759;28;20195;-72
2021/06/15 03:48:31;;;;;;;5.70;2.97;;;;;;;16.01;58.47;95833.09;4981122;28;20281;-73
2021/06/15 03:50:57;;;;;;;4.50;3.20;;;;;;;16.63;57.34;95840.81;4997315;28;20182;-72
2021/06/15 03:53:29;;;;;;;4.53;3.20;;;;;;;18.34;52.74;95837.94;4991058;28;20176;-73
2021/06/15 03:55:55;;;;;;;4.82;2.65;;;;;;;19.91;48.60;95841.78;4985817;28;20207;-73
2021/06/15 03:58:20;;;;;;;5.10;2.72;;;;;;;20.89;45.76;95839.47;4977590;28;20263;-73
2021/06/15 04:00:49;;;;;;;3.80;2.25;;;;;;;22.02;42.47;95842.63;4993798;28;20241;-73
2021/06/15 04:03:15;;;;;;;3.58;3.10;;;;;;;22.70;40.45;95845.44;4980410;28;20203;-73
2021/06/15 04:05:41;;;;;;;4.82;2.85;;;;;;;23.45;38.49;95848.03;4988798;28;20226;-73
2021/06/15 04:08:08;;;;;;;5.90;2.80;;;;;;;23.77;37.36;95851.38;4978151;28;20650;-74
2021/06/15 04:10:34;;;;;;;6.55;2.70;;;;;;;24.96;35.57;95844.34;4977449;28;20179;-73
2021/06/15 04:13:01;;;;;;;4.50;2.80;;;;;;;25.76;33.48;95849.06;4977282;28;20176;-73
2021/06/15 04:15:27;;;;;;;4.50;2.70;;;;;;;26.08;33.00;95848.63;4987208;28;20233;-73
2021/06/15 04:17:55;;;;;;;3.65;2.30;;;;;;;26.61;31.49;95842.97;4994156;28;20217;-74
2021/06/15 04:20:29;;;;;;;5.38;2.45;;;;;;;27.14;31.01;95849.69;4996218;28;20222;-74
2021/06/15 04:22:58;;;;;;;3.95;2.47;;;;;;;27.40;30.75;95853.53;4996586;28;20171;-74
2021/06/15 04:25:26;;;;;;;3.42;2.38;;;;;;;27.18;30.57;95856.13;4990886;28;20243;-74
2021/06/15 04:27:52;;;;;;;2.97;2.10;;;;;;;27.56;30.47;95855.31;4974385;28;20199;-74
2021/06/15 04:30:19;;;;;;;5.05;2.67;;;;;;;28.26;29.38;95861.78;4993328;28;20263;-74
2021/06/15 04:32:59;;;;;;;4.07;2.70;;;;;;;28.37;28.18;95858.22;4977179;28;20175;-74
2021/06/15 04:35:27;;;;;;;4.68;2.90;;;;;;;28.50;28.60;95863.13;4996007;28;20226;-74
2021/06/15 04:37:53;;;;;;;4.85;2.60;;;;;;;28.70;27.96;95861.69;4987270;28;20183;-74
2021/06/15 04:40:28;;;;;;;6.22;2.75;;;;;;;29.13;27.04;95859.94;4976952;28;20176;-75
2021/06/15 04:42:53;;;;;;;3.78;2.25;;;;;;;29.58;27.10;95865.59;4976880;28;20186;-75
2021/06/15 04:45:22;;;;;;;6.83;2.20;;;;;;;29.77;26.65;95868.66;4994158;28;20579;-74
2021/06/15 04:47:51;;;;;;;5.13;2.80;;;;;;;29.72;26.92;95862.47;4986355;28;20446;-74
2021/06/15 04:50:24;;;;;;;2.65;2.33;;;;;;;30.71;25.59;95862.25;4996079;28;20190;-75
2021/06/15 04:52:50;;;;;;;3.50;2.53;;;;;;;30.48;26.01;95864.59;4996165;28;20171;-74
2021/06/15 04:55:18;;;;;;;3.97;2.40;;;;;;;31.35;24.57;95868.94;4995796;28;20694;-74
2021/06/15 04:57:44;;;;;;;3.85;2.38;;;;;;;31.69;24.29;95882.56;4985640;28;20188;-73
2021/06/15 05:00:10;;;;;;;4.18;2.42;;;;;;;31.21;24.60;95875.97;4984460;28;20200;-74
2021/06/15 05:02:37;;;;;;;4.00;2.38;;;;;;;30.58;25.58;95876.16;4993960;28;20230;-73
2021/06/15 05:05:09;;;;;;;2.95;2.50;;;;;;;30.69;24.81;95877.81;4975874;28;20203;-74
2021/06/15 05:07:35;;;;;;;2.70;2.30;;;;;;;30.08;25.74;95884.88;4999175;28;20191;-73
2021/06/15 05:10:03;;;;;;;2.63;2.33;;;;;;;30.27;25.97;95880.63;5003190;28;20171;-73
2021/06/15 05:12:34;;;;;;;3.13;2.22;;;;;;;30.14;26.04;95881.94;4993567;28;20176;-74
2021/06/15 05:15:07;;;;;;;3.28;2.20;;;;;;;30.07;26.60;95876.03;4975964;28;20200;-73
2021/06/15 05:17:34;;;;;;;5.78;2.30;;;;;;;31.08;25.07;95873.78;4976596;28;20230;-74
2021/06/15 05:19:59;;;;;;;4.53;2.45;;;;;;;31.33;25.14;95875.66;4987176;28;20254;-74
2021/06/15 05:22:29;;;;;;;3.55;2.60;;;;;;;31.33;24.53;95879.16;5013105;28;20603;-74
2021/06/15 05:24:55;;;;;;;4.63;2.45;;;;;;;31.79;24.04;95882.56;4995203;28;20306;-73
2021/06/15 05:27:32;;;;;;;5.40;2.40;;;;;;;31.58;24.58;95891.72;4995402;28;20183;-73
2021/06/15 05:29:58;;;;;;;3.83;2.42;;;;;;;32.32;23.60;95882.91;4984372;28;20179;-73
2021/06/15 05:32:23;;;;;;;4.53;2.50;;;;;;;31.66;24.55;95893.84;4982294;28;20207;-73
2021/06/15 05:34:49;;;;;;;2.85;2.58;;;;;;;30.90;25.72;95891.22;4959343;28;20211;-74
2021/06/15 05:37:15;;;;;;;4.28;2.20;;;;;;;31.11;25.74;95892.03;4975642;28;20176;-74
2021/06/15 05:39:40;;;;;;;4.22;2.63;;;;;;;31.37;25.69;95892.84;4982637;28;20187;-74
2021/06/15 05:42:06;;;;;;;3.50;2.88;;;;;;;31.48;25.67;95895.25;4984149;28;20183;-73
2021/06/15 05:44:35;;;;;;;3.78;2.50;;;;;;;31.69;25.39;95895.19;4975234;28;20583;-74
2021/06/15 05:47:02;;;;;;;4.95;2.10;;;;;;;31.24;25.60;95895.00;4975420;28;20259;-73
2021/06/15 05:49:27;;;;;;;4.30;2.25;;;;;;;31.60;25.67;95896.81;4975249;28;20176;-74
2021/06/15 05:51:57;;;;;;;5.20;2.50;;;;;;;31.78;25.23;95899.75;4984804;28;20615;-74
2021/06/15 05:54:22;;;;;;;5.78;2.40;;;;;;;32.50;24.02;95889.50;4975148;28;20563;-73
2021/06/15 05:56:48;;;;;;;3.50;2.20;;;;;;;33.25;23.31;95892.75;4992858;28;20263;-73
2021/06/15 05:59:13;;;;;;;5.05;2.72;;;;;;;33.95;22.46;95896.97;4975295;28;20274;-73
2021/06/15 06:01:41;;;;;;;2.92;2.20;;;;;;;33.86;21.93;95902.13;4982948;28;20186;-73
2021/06/15 06:04:10;;;;;;;3.53;2.22;;;;;;;34.97;20.32;95907.19;4983087;28;20212;-75
2021/06/15 06:09:19;;;;;;;4.93;2.28;;;;;;;33.98;21.87;95902.56;4978014;28;20250;-74
2021/06/15 06:11:45;;;;;;;3.30;2.10;;;;;;;34.03;22.11;95915.97;4998543;28;20639;-74
2021/06/15 06:14:11;;;;;;;2.90;2.38;;;;;;;34.10;22.66;95912.91;5003638;28;20278;-73
2021/06/15 06:16:37;;;;;;;3.00;2.70;;;;;;;33.06;23.79;95912.56;4994678;28;20562;-75
2021/06/15 06:19:03;;;;;;;2.90;2.50;;;;;;;32.82;23.95;95913.25;4994453;28;20182;-74
2021/06/15 06:21:31;;;;;;;3.40;2.53;;;;;;;32.95;24.43;95918.03;4977200;28;20187;-74
2021/06/15 06:23:57;;;;;;;2.97;2.42;;;;;;;34.48;23.60;95921.91;4984663;28;20261;-74
2021/06/15 06:26:23;;;;;;;8.18;2.97;;;;;;;33.22;25.35;95927.50;4974939;28;20176;-73
2021/06/15 06:28:48;;;;;;;3.10;2.80;;;;;;;33.36;25.55;95924.97;4974951;28;20172;-75
2021/06/15 06:31:14;;;;;;;2.88;2.45;;;;;;;33.62;24.70;95914.78;4992317;28;20180;-74
2021/06/15 06:33:39;;;;;;;7.07;2.60;;;;;;;33.54;24.16;95932.34;4997469;28;20719;-75
2021/06/15 06:36:04;;;;;;;2.70;2.47;;;;;;;33.12;24.77;95931.06;4984922;28;20285;-75
2021/06/15 06:38:30;;;;;;;3.88;2.60;;;;;;;32.53;24.80;95925.81;5010361;28;20391;-74
2021/06/15 06:40:55;;;;;;;4.00;2.78;;;;;;;33.23;23.83;95929.91;5009767;28;20518;-74
2021/06/15 06:43:20;;;;;;;3.65;2.72;;;;;;;33.40;23.05;95932.22;4988905;28;20220;-74
2021/06/15 06:45:46;;;;;;;3.40;2.50;;;;;;;32.47;24.03;95927.72;5001037;28;20219;-75
2021/06/15 06:48:11;;;;;;;4.20;2.28;;;;;;;31.52;23.79;95927.69;5010049;28;20234;-75
2021/06/15 06:50:37;;;;;;;4.93;2.67;;;;;;;31.49;24.79;95929.06;5010114;28;20217;-74
2021/06/15 06:53:02;;;;;;;3.42;2.42;;;;;;;31.89;23.82;95931.94;4976380;28;20194;-74
2021/06/15 06:55:29;;;;;;;4.25;2.88;;;;;;;31.48;24.01;95927.44;5001718;28;20665;-75
2021/06/15 06:57:55;;;;;;;3.55;2.35;;;;;;;30.26;26.09;95929.91;4977210;28;20586;-74
2021/06/15 07:00:20;;;;;;;5.78;2.80;;;;;;;32.16;23.09;95936.94;4958493;28;20186;-73
2021/06/15 07:02:48;;;;;;;5.82;2.70;;;;;;;31.70;23.92;95929.81;4974611;28;20203;-73
2021/06/15 07:05:14;;;;;;;4.07;2.42;;;;;;;31.42;24.58;95923.16;4997078;28;20235;-74
2021/06/15 07:07:39;;;;;;;2.85;2.40;;;;;;;31.13;25.72;95928.25;5004442;28;20220;-74
2021/06/15 07:10:05;;;;;;;7.38;2.80;;;;;;;31.70;26.18;95926.31;4983272;28;20182;-74
2021/06/15 07:12:30;;;;;;;3.25;2.85;;;;;;;31.98;25.19;95924.94;4974493;28;20184;-73
2021/06/15 07:14:55;;;;;;;2.60;2.40;;;;;;;32.77;23.81;95928.59;4974997;28;20666;-74
2021/06/15 07:17:21;;;;;;;2.97;2.50;;;;;;;31.91;24.97;95922.56;4984581;28;20215;-73
2021/06/15 07:19:46;;;;;;;3.47;2.92;;;;;;;32.39;23.96;95931.78;4993953;28;20266;-73
2021/06/15 07:22:11;;;;;;;2.95;2.60;;;;;;;31.77;25.31;95930.38;4993962;28;20171;-74
2021/06/15 07:24:37;;;;;;;3.05;2.47;;;;;;;32.57;24.48;95933.03;4993368;28;20207;-74
2021/06/15 07:27:03;;;;;;;3.00;2.75;;;;;;;31.72;25.47;95929.56;5002123;28;20192;-73
2021/06/15 07:29:29;;;;;;;6.70;2.63;;;;;;;30.37;26.50;95928.88;4979974;28;20259;-74
2021/06/15 07:31:54;;;;;;;4.05;2.90;;;;;;;29.77;26.95;95922.19;4974285;28;20640;-73
2021/06/15 07:34:21;;;;;;;3.40;3.10;;;;;;;29.30;28.03;95930.13;4973975;28;20212;-73
2021/06/15 07:36:46;;;;;;;4.03;2.58;;;;;;;29.63;27.90;95930.91;4963612;28;20647;-73
2021/06/15 07:39:11;;;;;;;5.68;3.33;;;;;;;28.47;30.11;95927.75;4981155;28;20187;-73
2021/06/15 07:41:38;;;;;;;4.32;2.47;;;;;;;28.87;28.70;95931.88;4993807;28;20172;-73
2021/06/15 07:44:04;;;;;;;3.85;3.15;;;;;;;28.39;30.65;95928.19;4977287;28;20218;-74
2021/06/15 07:46:29;;;;;;;7.05;3.20;;;;;;;28.94;29.12;95927.16;4977348;28;20552;-73
2021/06/15 07:48:55;;;;;;;6.13;3.00;;;;;;;28.30;30.15;95932.38;4999372;28;20188;-73
2021/06/15 07:51:20;;;;;;;7.03;2.83;;;;;;;29.20;28.83;95930.06;4958232;28;20200;-73
2021/06/15 07:53:46;;;;;;;5.10;2.30;;;;;;;27.96;29.61;95934.31;4957622;28;20250;-74
2021/06/15 07:56:11;;;;;;;3.92;2.90;;;;;;;27.23;31.01;95935.41;4977960;28;20178;-72
2021/06/15 07:58:36;;;;;;;4.00;2.90;;;;;;;27.77;30.20;95930.34;5001287;28;20222;-73
2021/06/15 08:01:02;;;;;;;6.70;2.90;;;;;;;28.43;29.46;95931.97;5006056;28;20176;-73
2021/06/15 08:03:28;;;;;;;3.88;2.58;;;;;;;28.45;27.40;95937.91;4980210;28;20619;-73
2021/06/15 08:05:53;;;;;;;4.55;2.90;;;;;;;27.71;30.02;95933.97;4979963;28;20841;-73
2021/06/15 08:08:19;;;;;;;3.65;2.42;;;;;;;28.09;29.29;95933.13;4979805;28;20190;-74
2021/06/15 08:10:44;;;;;;;4.60;2.75;;;;;;;27.18;32.42;95929.97;4988699;28;20274;-74
2021/06/15 08:13:09;;;;;;;6.20;2.65;;;;;;;27.53;30.52;95932.38;4961400;28;20658;-74
2021/06/15 08:15:35;;;;;;;6.18;3.30;;;;;;;27.85;30.04;95936.06;4993445;28;20231;-74
2021/06/15 08:18:00;;;;;;;6.07;3.22;;;;;;;27.61;30.95;95940.75;4977344;28;20175;-73
2021/06/15 08:20:25;;;;;;;8.15;3.25;;;;;;;26.78;32.10;95942.34;4983782;28;20179;-74
2021/06/15 08:22:51;;;;;;;5.60;3.10;;;;;;;27.21;31.70;95938.31;5003773;28;20244;-74
2021/06/15 08:25:16;;;;;;;6.10;3.50;;;;;;;26.24;33.63;95941.03;4996441;28;20277;-74
2021/06/15 08:27:41;;;;;;;6.10;3.28;;;;;;;26.40;33.35;95942.97;5014183;28;20701;-74
2021/06/15 08:30:08;;;;;;;8.45;4.63;;;;;;;25.24;36.78;95935.91;5010504;28;20187;-74
2021/06/15 08:32:34;;;;;;;8.48;3.55;;;;;;;25.12;36.63;95936.72;5002325;28;20179;-74
2021/06/15 08:34:59;;;;;;;9.45;4.40;;;;;;;24.80;37.06;95936.13;4976703;28;20734;-74
2021/06/15 08:37:24;;;;;;;4.93;3.70;;;;;;;24.90;38.15;95935.59;4976875;28;20263;-73
2021/06/15 08:39:50;;;;;;;5.45;3.40;;;;;;;24.55;38.17;95946.09;4976968;28;20184;-73
2021/06/15 08:42:15;;;;;;;7.70;3.80;;;;;;;24.80;38.87;95943.31;5004128;28;20183;-73
2021/06/15 08:44:42;;;;;;;6.90;3.97;;;;;;;24.51;37.33;95944.94;4964455;28;20709;-73
2021/06/15 08:47:07;;;;;;;11.35;3.35;;;;;;;24.85;37.88;95948.75;4976960;28;20184;-74
2021/06/15 08:49:33;;;;;;;5.55;3.63;;;;;;;25.00;37.13;95943.00;4976996;28;20546;-73
2021/06/15 08:51:58;;;;;;;4.57;3.30;;;;;;;25.48;36.25;95948.16;4984110;28;20190;-73
2021/06/15 08:54:25;;;;;;;4.90;3.17;;;;;;;25.83;35.68;95947.38;4989394;28;20206;-74
2021/06/15 08:56:51;;;;;;;6.10;3.28;;;;;;;25.65;34.72;95954.41;4996262;28;20641;-74
2021/06/15 08:59:23;;;;;;;6.57;3.38;;;;;;;25.33;36.25;95945.97;4996026;28;20189;-73
2021/06/15 09:02:01;;;;;;;4.93;3.28;;;;;;;25.95;36.32;95943.63;4995039;28;20257;-73
2021/06/15 09:04:27;;;;;;;4.65;3.00;;;;;;;26.27;34.36;95941.38;4984162;28;20590;-73
2021/06/15 09:06:56;;;;;;;4.72;3.55;;;;;;;25.72;36.05;95949.00;4960097;28;20179;-73
2021/06/15 09:09:22;;;;;;;6.68;3.40;;;;;;;25.70;35.88;95943.06;4976544;28;20263;-75
2021/06/15 09:11:53;;;;;;;9.00;3.58;;;;;;;25.05;37.01;95949.28;4976542;28;20310;-73
2021/06/15 09:14:54;;;;;;;3.55;3.05;;;;;;;25.40;35.46;95951.16;4987264;28;20383;-75
2021/06/15 09:17:26;;;;;;;6.07;3.83;;;;;;;25.33;35.99;95951.28;4917797;29;20656;-74
2021/06/15 09:19:52;;;;;;;7.43;3.47;;;;;;;25.92;36.24;95949.44;4933708;29;20236;-74
2021/06/15 09:22:31;;;;;;;4.70;3.53;;;;;;;25.46;36.92;95950.25;4917795;29;20306;-75
2021/06/15 09:24:57;;;;;;;7.53;3.45;;;;;;;25.47;36.29;95951.06;4914111;29;20230;-74
2021/06/15 09:27:31;;;;;;;7.90;3.42;;;;;;;25.50;35.96;95962.03;4917247;29;20189;-74
2021/06/15 09:29:58;;;;;;;4.57;3.20;;;;;;;25.38;35.78;95954.06;4917762;29;20655;-74
2021/06/15 09:32:23;;;;;;;4.22;3.30;;;;;;;25.83;36.06;95950.84;4917413;29;20196;-73
2021/06/15 09:34:50;;;;;;;6.43;3.60;;;;;;;26.25;34.59;95956.78;4923804;29;20214;-73
2021/06/15 09:37:16;;;;;;;6.18;3.60;;;;;;;26.13;35.47;95955.97;4925690;29;20716;-74
2021/06/15 09:39:42;;;;;;;5.65;3.60;;;;;;;26.40;35.96;95964.25;4933160;29;20181;-73
2021/06/15 09:42:11;;;;;;;4.57;3.50;;;;;;;26.34;35.76;95961.72;4933106;29;20204;-73
2021/06/15 09:44:37;;;;;;;6.97;3.50;;;;;;;25.68;36.52;95966.44;4928244;29;20318;-73
2021/06/15 09:47:06;;;;;;;6.38;3.42;;;;;;;25.45;37.44;95967.25;4923716;29;20185;-73
2021/06/15 09:49:39;;;;;;;3.85;3.38;;;;;;;26.09;37.41;95959.38;4917384;29;20313;-74
2021/06/15 09:52:09;;;;;;;4.28;3.50;;;;;;;26.52;34.58;95961.59;4978764;28;20677;-72
2021/06/15 09:55:05;;;;;;;5.35;3.88;;;;;;;26.46;33.82;95954.53;4991391;28;20295;-72
2021/06/15 09:57:34;;;;;;;5.80;3.60;;;;;;;26.17;35.02;95953.69;4981537;28;20614;-73
2021/06/15 10:00:09;;;;;;;4.20;3.40;;;;;;;26.97;33.30;95966.94;4976215;28;20187;-75
2021/06/15 10:02:35;;;;;;;5.07;3.20;;;;;;;27.03;31.62;95955.34;4975560;28;20187;-74
2021/06/15 10:05:22;;;;;;;6.53;3.40;;;;;;;26.06;34.74;95963.31;4975051;28;20206;-74
2021/06/15 10:07:48;;;;;;;5.72;3.25;;;;;;;25.49;35.04;95957.75;5003158;28;20201;-73
2021/06/15 10:10:19;;;;;;;4.97;3.17;;;;;;;26.52;35.69;95956.25;4975330;28;20171;-74
2021/06/15 10:12:46;;;;;;;4.43;3.53;;;;;;;27.06;33.68;95954.84;4975432;28;20214;-74
2021/06/15 10:15:12;;;;;;;3.88;3.55;;;;;;;26.64;34.89;95954.34;4974941;28;20192;-75
2021/06/15 10:17:37;;;;;;;5.32;3.50;;;;;;;26.98;33.76;95946.41;4980502;28;20608;-73
2021/06/15 10:20:03;;;;;;;5.93;3.40;;;;;;;27.18;33.30;95948.63;4983079;28;20721;-73
2021/06/15 10:22:29;;;;;;;4.78;2.95;;;;;;;27.25;33.34;95947.41;4975135;28;20180;-74
2021/06/15 10:24:55;;;;;;;3.88;3.38;;;;;;;26.43;34.65;95944.38;4958675;28;20216;-74
2021/06/15 10:27:20;;;;;;;5.40;3.90;;;;;;;27.17;33.74;95939.81;4978915;28;20175;-74
2021/06/15 10:29:51;;;;;;;7.60;3.10;;;;;;;27.26;31.54;95942.91;5004014;28;20178;-74
2021/06/15 10:32:21;;;;;;;4.25;3.00;;;;;;;27.05;31.12;95945.25;4994793;28;20183;-74
2021/06/15 10:34:51;;;;;;;3.53;3.00;;;;;;;27.70;31.87;95951.84;4977690;28;20214;-74
2021/06/15 10:37:32;;;;;;;5.90;3.30;;;;;;;27.13;32.61;95944.03;5002524;28;20706;-75
2021/06/15 10:39:58;;;;;;;5.93;3.92;;;;;;;27.54;31.84;95941.97;4994306;28;20211;-74
2021/06/15 10:42:24;;;;;;;9.80;3.30;;;;;;;27.90;31.03;95943.31;4974763;28;20657;-73
2021/06/15 10:45:20;;;;;;;6.35;3.35;;;;;;;28.23;32.50;95948.53;4974485;28;20215;-73
2021/06/15 10:48:04;;;;;;;4.70;3.65;;;;;;;28.10;31.73;95943.59;4997584;28;20235;-73
2021/06/15 10:50:47;;;;;;;5.15;3.15;;;;;;;28.69;29.85;95945.59;5006102;28;20650;-73
2021/06/15 10:53:13;;;;;;;3.90;3.42;;;;;;;27.48;31.31;95940.31;4994062;28;20182;-73
2021/06/15 10:55:40;;;;;;;4.20;2.75;;;;;;;27.65;29.62;95936.56;4994303;28;20195;-74
2021/06/15 10:58:05;;;;;;;4.60;2.53;;;;;;;28.35;29.70;95937.75;5007896;28;20187;-75
2021/06/15 11:00:30;;;;;;;3.25;2.90;;;;;;;28.52;29.07;95935.00;4982713;28;20198;-75
2021/06/15 11:03:18;;;;;;;6.88;3.53;;;;;;;28.93;29.51;95941.59;4974766;28;20564;-75
2021/06/15 11:05:49;;;;;;;6.97;2.80;;;;;;;28.94;29.88;95943.19;4992095;28;20204;-75
2021/06/15 11:08:22;;;;;;;4.90;2.78;;;;;;;28.87;27.90;95944.44;4994693;28;20199;-75
2021/06/15 11:11:03;;;;;;;6.00;2.58;;;;;;;28.73;28.02;95942.19;5000295;28;20270;-75
2021/06/15 11:13:43;;;;;;;4.10;3.40;;;;;;;28.21;30.40;95942.66;4990443;28;20682;-74
2021/06/15 11:16:21;;;;;;;3.67;3.33;;;;;;;27.62;32.25;95936.22;4974559;28;20218;-74
2021/06/15 11:18:46;;;;;;;4.50;3.10;;;;;;;28.04;30.08;95944.56;4997179;28;20765;-75
2021/06/15 11:21:24;;;;;;;6.15;3.58;;;;;;;28.06;30.50;95942.47;4985734;28;20187;-73
2021/06/15 11:24:20;;;;;;;4.53;3.28;;;;;;;28.61;29.96;95938.03;4977811;28;20540;-73
2021/06/15 11:26:47;;;;;;;5.15;3.20;;;;;;;28.56;30.30;95941.47;5011515;28;20248;-73
2021/06/15 11:29:37;;;;;;;6.78;3.72;;;;;;;28.45;31.33;95943.25;4994482;28;20187;-73
2021/06/15 11:32:29;;;;;;;5.43;3.35;;;;;;;28.08;30.36;95937.66;4987845;28;20262;-73
2021/06/15 11:34:54;;;;;;;4.32;3.33;;;;;;;26.87;33.72;95929.44;4977828;28;20210;-74
2021/06/15 11:37:20;;;;;;;5.13;3.40;;;;;;;27.05;33.83;95933.78;4995708;28;20168;-73
2021/06/15 11:39:46;;;;;;;4.63;3.75;;;;;;;27.21;33.77;95938.31;4997569;28;20199;-73
2021/06/15 11:42:22;;;;;;;5.13;4.07;;;;;;;26.96;34.03;95924.53;4993804;28;20179;-73
2021/06/15 11:44:59;;;;;;;6.68;3.30;;;;;;;27.37;33.26;95929.47;4994992;28;20719;-73